Time;durP1;ratioP1;P1;durP2;ratioP2;P2;SDS_P1;SDS_P2;PMS_P1;PMS_P2;Temp;Humidity;BMP_temperature;BMP_pressure;BME280_temperature;BME280_humidity;BME280_pressure;Samples;Min_cycle;Max_cycle;Signal;HPM_P1;HPM_P2
2023/06/17 00:01:37;;;;;;;;;;;;;;;16.04;100.00;95611.47;10506366;28;2071;-68
2023/06/17 00:06:39;;;;;;;;;;;;;;;16.20;100.00;95612.66;10505792;28;1924;-67
2023/06/17 00:11:41;;;;;;;;;;;;;;;15.96;100.00;95604.09;10512214;28;2280;-66
2023/06/17 00:16:44;;;;;;;;;;;;;;;15.76;100.00;95615.47;10514358;28;1974;-67
2023/06/17 00:21:48;;;;;;;;;;;;;;;15.72;100.00;95604.47;10507006;28;1964;-66
2023/06/17 00:26:50;;;;;;;;;;;;;;;15.54;100.00;95602.72;10503497;28;2317;-66
2023/06/17 00:31:53;;;;;;;;;;;;;;;15.38;100.00;95604.97;10506003;28;1902;-66
2023/06/17 00:36:55;;;;;;;;;;;;;;;15.24;100.00;95598.84;10503079;28;2008;-67
2023/06/17 00:41:57;;;;;;;;;;;;;;;15.18;100.00;95591.94;10510277;28;1928;-66
2023/06/17 00:47:00;;;;;;;;;;;;;;;15.10;100.00;95594.28;10502371;28;2000;-67
2023/06/17 00:52:04;;;;;;;;;;;;;;;15.07;100.00;95594.06;10507314;28;1921;-67
2023/06/17 00:57:27;;;;;;;;;;;;;;;14.95;100.00;95597.34;10493505;28;1951;-67
2023/06/17 01:02:30;;;;;;;;;;;;;;;14.89;100.00;95598.56;10512248;28;1903;-67
2023/06/17 01:07:35;;;;;;;;;;;;;;;14.80;100.00;95594.97;10502530;28;2034;-66
2023/06/17 01:12:38;;;;;;;;;;;;;;;14.83;100.00;95597.06;10500195;28;2310;-67
2023/06/17 01:17:44;;;;;;;;;;;;;;;14.74;100.00;95588.06;10504375;28;2203;-67
2023/06/17 01:22:47;;;;;;;;;;;;;;;14.72;100.00;95595.69;10501012;28;2263;-67
2023/06/17 01:27:54;;;;;;;;;;;;;;;14.65;100.00;95593.41;10505764;28;1954;-67
2023/06/17 01:32:56;;;;;;;;;;;;;;;14.56;100.00;95584.38;10512928;28;1914;-66
2023/06/17 01:37:59;;;;;;;;;;;;;;;14.50;100.00;95591.78;10514867;28;1958;-65
2023/06/17 01:43:02;;;;;;;;;;;;;;;14.47;100.00;95603.22;10509432;28;4928;-65
2023/06/17 01:48:04;;;;;;;;;;;;;;;14.48;100.00;95604.84;10507014;28;2041;-65
2023/06/17 01:53:07;;;;;;;;;;;;;;;14.43;100.00;95601.41;10515138;28;2040;-67
2023/06/17 01:58:10;;;;;;;;;;;;;;;14.38;100.00;95602.31;10508078;28;1994;-67
2023/06/17 02:03:12;;;;;;;;;;;;;;;14.27;100.00;95600.91;10515031;28;1968;-67
2023/06/17 02:08:15;;;;;;;;;;;;;;;14.32;100.00;95595.41;10521807;28;1874;-66
2023/06/17 02:13:18;;;;;;;;;;;;;;;14.30;100.00;95582.19;10512486;28;1949;-65
2023/06/17 02:18:20;;;;;;;;;;;;;;;14.32;100.00;95590.00;10511679;28;2401;-66
2023/06/17 02:23:22;;;;;;;;;;;;;;;14.17;100.00;95582.97;10506214;28;1969;-67
2023/06/17 02:28:25;;;;;;;;;;;;;;;14.09;100.00;95593.72;10511536;28;1916;-65
2023/06/17 02:33:27;;;;;;;;;;;;;;;14.00;100.00;95591.72;10510527;28;2022;-65
2023/06/17 02:38:30;;;;;;;;;;;;;;;14.01;100.00;95595.22;10513517;28;1929;-65
2023/06/17 02:43:32;;;;;;;;;;;;;;;13.83;100.00;95598.78;10513981;28;4670;-66
2023/06/17 02:48:35;;;;;;;;;;;;;;;13.87;100.00;95600.59;10511204;28;1923;-66
2023/06/17 02:53:38;;;;;;;;;;;;;;;13.79;100.00;95601.28;10516045;28;1910;-66
2023/06/17 02:58:43;;;;;;;;;;;;;;;13.70;100.00;95598.47;10515841;28;1925;-66
2023/06/17 03:03:46;;;;;;;;;;;;;;;13.67;100.00;95600.94;10507146;28;1950;-65
2023/06/17 03:08:49;;;;;;;;;;;;;;;13.65;100.00;95593.16;10505819;28;2055;-67
2023/06/17 03:13:51;;;;;;;;;;;;;;;13.70;100.00;95603.06;10505036;28;2365;-67
2023/06/17 03:18:53;;;;;;;;;;;;;;;13.69;100.00;95601.47;10507946;28;1856;-67
2023/06/17 03:23:56;;;;;;;;;;;;;;;13.71;100.00;95596.56;10512509;28;1872;-67
2023/06/17 03:28:58;;;;;;;;;;;;;;;13.78;100.00;95596.97;10507255;28;1941;-67
2023/06/17 03:34:01;;;;;;;;;;;;;;;13.86;100.00;95598.19;10507013;28;1895;-68
2023/06/17 03:39:03;;;;;;;;;;;;;;;13.89;100.00;95593.00;10517395;28;2045;-68
2023/06/17 03:44:06;;;;;;;;;;;;;;;14.09;100.00;95599.91;10508235;28;4662;-66
2023/06/17 03:49:08;;;;;;;;;;;;;;;14.31;100.00;95593.78;10509916;28;1986;-68
2023/06/17 03:54:11;;;;;;;;;;;;;;;14.48;100.00;95594.00;10508317;28;1931;-66
2023/06/17 03:59:15;;;;;;;;;;;;;;;14.73;100.00;95595.38;10502481;28;1943;-66
2023/06/17 04:04:17;;;;;;;;;;;;;;;14.97;100.00;95605.16;10508225;28;1875;-67
2023/06/17 04:09:20;;;;;;;;;;;;;;;15.24;100.00;95604.25;10503789;28;2350;-66
2023/06/17 04:14:22;;;;;;;;;;;;;;;15.51;100.00;95608.75;10505587;28;1951;-66
2023/06/17 04:19:25;;;;;;;;;;;;;;;15.80;100.00;95608.31;10503194;28;1937;-67
2023/06/17 04:24:27;;;;;;;;;;;;;;;16.04;100.00;95608.78;10499371;28;2051;-67
2023/06/17 04:29:30;;;;;;;;;;;;;;;16.43;100.00;95599.03;10511084;28;1956;-68
2023/06/17 04:34:33;;;;;;;;;;;;;;;16.69;100.00;95602.59;10511604;28;1986;-67
2023/06/17 04:39:35;;;;;;;;;;;;;;;16.81;100.00;95606.66;10514623;28;1803;-66
2023/06/17 04:44:37;;;;;;;;;;;;;;;17.18;100.00;95602.53;10493029;28;4497;-66
2023/06/17 04:49:41;;;;;;;;;;;;;;;17.08;100.00;95600.91;10512338;28;1551;-67
2023/06/17 04:54:44;;;;;;;;;;;;;;;17.47;100.00;95594.50;10511515;28;1990;-67
2023/06/17 04:59:46;;;;;;;;;;;;;;;17.72;100.00;95605.69;10507119;28;1884;-65
2023/06/17 05:04:48;;;;;;;;;;;;;;;17.97;100.00;95606.75;10507136;28;1795;-67
2023/06/17 05:09:51;;;;;;;;;;;;;;;18.25;100.00;95605.19;10504687;28;2090;-68
2023/06/17 05:14:53;;;;;;;;;;;;;;;18.51;100.00;95602.41;10504376;28;1911;-67
2023/06/17 05:19:56;;;;;;;;;;;;;;;18.93;100.00;95607.13;10505775;28;1926;-66
2023/06/17 05:24:58;;;;;;;;;;;;;;;19.27;100.00;95614.25;10496841;28;2037;-66
2023/06/17 05:30:01;;;;;;;;;;;;;;;19.09;100.00;95610.88;10502977;28;2228;-67
2023/06/17 05:35:03;;;;;;;;;;;;;;;19.61;100.00;95615.94;10520064;28;1902;-67
2023/06/17 05:40:06;;;;;;;;;;;;;;;19.78;100.00;95610.28;10503921;28;2001;-67
2023/06/17 05:45:08;;;;;;;;;;;;;;;19.92;100.00;95610.81;10510500;28;1974;-67
2023/06/17 05:50:10;;;;;;;;;;;;;;;20.43;99.39;95619.53;10508336;28;1972;-67
2023/06/17 05:55:13;;;;;;;;;;;;;;;20.56;99.84;95619.56;10501600;28;2199;-66
2023/06/17 06:00:15;;;;;;;;;;;;;;;20.46;99.95;95618.88;10508729;28;1926;-67
2023/06/17 06:05:18;;;;;;;;;;;;;;;20.69;98.63;95619.22;10497811;28;2371;-66
2023/06/17 06:10:21;;;;;;;;;;;;;;;21.02;95.45;95619.09;10510676;28;2007;-67
2023/06/17 06:15:25;;;;;;;;;;;;;;;21.19;95.23;95628.19;10512311;28;1977;-66
2023/06/17 06:20:28;;;;;;;;;;;;;;;21.41;93.87;95624.94;10519676;28;1930;-66
2023/06/17 06:25:31;;;;;;;;;;;;;;;21.71;95.17;95619.16;10519197;28;1886;-67
2023/06/17 06:30:33;;;;;;;;;;;;;;;21.51;90.58;95631.88;10512974;28;1974;-66
2023/06/17 06:35:35;;;;;;;;;;;;;;;21.82;93.75;95632.00;10526650;28;1957;-66
2023/06/17 06:40:38;;;;;;;;;;;;;;;21.80;88.17;95630.72;10514088;28;4775;-67
2023/06/17 06:45:40;;;;;;;;;;;;;;;22.00;89.32;95640.66;10508087;28;1979;-66
2023/06/17 06:50:43;;;;;;;;;;;;;;;21.85;89.91;95638.69;10503561;28;1904;-65
2023/06/17 06:55:45;;;;;;;;;;;;;;;22.53;84.67;95641.31;10510617;28;1896;-68
2023/06/17 07:00:47;;;;;;;;;;;;;;;22.53;81.08;95640.50;10512338;28;2349;-67
2023/06/17 07:05:50;;;;;;;;;;;;;;;22.75;83.28;95633.59;10514243;28;1815;-68
2023/06/17 07:10:52;;;;;;;;;;;;;;;23.19;79.99;95634.25;10508519;28;1985;-68
2023/06/17 07:15:55;;;;;;;;;;;;;;;23.11;73.08;95644.28;10506298;28;2031;-67
2023/06/17 07:20:57;;;;;;;;;;;;;;;23.05;71.38;95642.97;10507916;28;1978;-68
2023/06/17 07:25:59;;;;;;;;;;;;;;;22.81;70.97;95643.13;10507389;28;1899;-67
2023/06/17 07:31:02;;;;;;;;;;;;;;;23.48;67.44;95643.91;10506420;28;2073;-68
2023/06/17 07:36:05;;;;;;;;;;;;;;;23.47;61.82;95636.81;10518075;28;1989;-68
2023/06/17 07:41:07;;;;;;;;;;;;;;;22.83;65.55;95638.88;10509490;28;4759;-68
2023/06/17 07:46:10;;;;;;;;;;;;;;;23.20;61.65;95639.38;10506230;28;1972;-68
2023/06/17 07:51:12;;;;;;;;;;;;;;;23.50;60.92;95638.84;10507587;28;1972;-68
2023/06/17 07:56:15;;;;;;;;;;;;;;;23.94;61.90;95628.41;10506114;28;2259;-67
2023/06/17 08:01:18;;;;;;;;;;;;;;;24.21;57.64;95634.00;10505930;28;2030;-66
2023/06/17 08:06:20;;;;;;;;;;;;;;;23.70;55.76;95626.75;10495294;28;1917;-67
2023/06/17 08:11:22;;;;;;;;;;;;;;;24.20;56.60;95624.19;10510876;28;1970;-67
2023/06/17 08:16:25;;;;;;;;;;;;;;;23.60;55.42;95621.84;10503958;28;1985;-68
2023/06/17 08:21:28;;;;;;;;;;;;;;;23.60;56.93;95619.09;10499570;28;2177;-68
2023/06/17 08:26:30;;;;;;;;;;;;;;;24.12;53.09;95615.03;10507758;28;1888;-68
2023/06/17 08:31:32;;;;;;;;;;;;;;;24.31;49.54;95616.13;10501050;28;1940;-67
2023/06/17 08:36:37;;;;;;;;;;;;;;;23.94;49.95;95608.41;10506996;28;1987;-66
2023/06/17 08:41:39;;;;;;;;;;;;;;;24.57;48.83;95612.69;10505630;28;4701;-66
2023/06/17 08:46:42;;;;;;;;;;;;;;;24.35;45.30;95614.25;10503181;28;1919;-68
2023/06/17 08:51:44;;;;;;;;;;;;;;;25.04;45.28;95595.75;10500755;28;2219;-67
2023/06/17 08:56:47;;;;;;;;;;;;;;;24.51;45.11;95601.22;10515652;28;1956;-66
2023/06/17 09:01:49;;;;;;;;;;;;;;;24.99;43.28;95599.59;10501963;28;1979;-69
2023/06/17 09:06:52;;;;;;;;;;;;;;;25.25;45.13;95593.31;10504886;28;2094;-68
2023/06/17 09:11:55;;;;;;;;;;;;;;;24.26;41.95;95590.56;10506794;28;1911;-68
2023/06/17 09:16:58;;;;;;;;;;;;;;;23.96;42.35;95590.41;10502100;28;1970;-69
2023/06/17 09:22:00;;;;;;;;;;;;;;;24.31;42.87;95592.22;10506114;28;1973;-67
2023/06/17 09:27:03;;;;;;;;;;;;;;;23.84;44.29;95592.50;10503500;28;1958;-65
2023/06/17 09:32:06;;;;;;;;;;;;;;;24.04;38.12;95585.03;10505522;28;1948;-67
2023/06/17 09:37:08;;;;;;;;;;;;;;;24.93;36.49;95586.53;10493846;28;1950;-67
2023/06/17 09:42:12;;;;;;;;;;;;;;;25.73;35.79;95579.00;10502727;28;4670;-67
2023/06/17 09:47:15;;;;;;;;;;;;;;;26.43;33.33;95571.88;10498018;28;2345;-66
2023/06/17 09:52:17;;;;;;;;;;;;;;;25.27;36.71;95574.50;10512707;28;2094;-67
2023/06/17 09:57:20;;;;;;;;;;;;;;;23.59;39.20;95578.28;10509356;28;1945;-66
2023/06/17 10:02:22;;;;;;;;;;;;;;;24.44;38.59;95576.38;10512394;28;1982;-67
2023/06/17 10:07:25;;;;;;;;;;;;;;;25.28;38.14;95572.53;10513602;28;1922;-65
2023/06/17 10:12:28;;;;;;;;;;;;;;;25.87;35.39;95562.63;10507690;28;2200;-66
2023/06/17 10:17:30;;;;;;;;;;;;;;;25.75;35.88;95562.91;10509738;28;2003;-65
2023/06/17 10:22:33;;;;;;;;;;;;;;;25.74;36.34;95559.34;10514657;28;1954;-65
2023/06/17 10:27:36;;;;;;;;;;;;;;;25.02;35.25;95554.88;10512982;28;1997;-67
2023/06/17 10:32:39;;;;;;;;;;;;;;;25.80;34.73;95557.84;10507206;28;2003;-66
2023/06/17 10:37:41;;;;;;;;;;;;;;;27.37;32.62;95542.56;10504543;28;2052;-67
2023/06/17 10:42:43;;;;;;;;;;;;;;;27.17;31.69;95544.84;10510357;28;4639;-66
2023/06/17 10:47:46;;;;;;;;;;;;;;;26.74;32.05;95537.47;10512819;28;1993;-67
2023/06/17 10:52:48;;;;;;;;;;;;;;;27.36;31.52;95537.44;10510095;28;1847;-68
2023/06/17 10:57:52;;;;;;;;;;;;;;;27.06;32.33;95538.47;10504470;28;1961;-67
2023/06/17 11:02:54;;;;;;;;;;;;;;;26.14;33.80;95533.78;10510052;28;1973;-69
2023/06/17 11:07:57;;;;;;;;;;;;;;;26.33;32.94;95531.97;10509910;28;1971;-67
2023/06/17 11:12:59;;;;;;;;;;;;;;;27.16;31.74;95504.63;10512594;28;2019;-67
2023/06/17 11:18:02;;;;;;;;;;;;;;;26.67;32.50;95513.38;10506859;28;2070;-67
2023/06/17 11:23:04;;;;;;;;;;;;;;;26.01;32.72;95515.16;10510145;28;1911;-67
2023/06/17 11:28:06;;;;;;;;;;;;;;;25.83;33.66;95501.22;10497749;28;2250;-68
2023/06/17 11:33:09;;;;;;;;;;;;;;;25.29;34.57;95500.63;10501095;28;2082;-67
2023/06/17 11:38:12;;;;;;;;;;;;;;;25.29;34.45;95495.13;10507853;28;1951;-68
2023/06/17 11:43:16;;;;;;;;;;;;;;;25.43;33.33;95471.69;10505715;28;4789;-67
2023/06/17 11:48:18;;;;;;;;;;;;;;;25.62;32.82;95496.28;10502661;28;1992;-67
2023/06/17 11:53:20;;;;;;;;;;;;;;;26.57;31.65;95483.78;10504834;28;2459;-67
2023/06/17 11:58:23;;;;;;;;;;;;;;;26.73;28.88;95467.75;10501667;28;2016;-67
2023/06/17 12:03:26;;;;;;;;;;;;;;;27.43;28.03;95466.50;10509012;28;1946;-67
2023/06/17 12:08:28;;;;;;;;;;;;;;;27.35;28.55;95462.13;10503990;28;1901;-68
2023/06/17 12:13:31;;;;;;;;;;;;;;;26.44;28.84;95458.50;10506203;28;1937;-67
2023/06/17 12:18:33;;;;;;;;;;;;;;;26.44;30.47;95454.94;10506220;28;2017;-66
2023/06/17 12:23:36;;;;;;;;;;;;;;;25.80;31.27;95450.47;10498630;28;1990;-66
2023/06/17 12:28:40;;;;;;;;;;;;;;;25.04;31.86;95450.00;10508618;28;1832;-68
2023/06/17 12:33:43;;;;;;;;;;;;;;;25.25;32.35;95450.25;10499829;28;1977;-68
2023/06/17 12:38:46;;;;;;;;;;;;;;;25.83;31.31;95435.97;10506109;28;2290;-68
2023/06/17 12:43:48;;;;;;;;;;;;;;;25.39;31.98;95437.84;10508734;28;4579;-67
2023/06/17 12:48:51;;;;;;;;;;;;;;;25.41;32.27;95436.31;10506042;28;2001;-69
2023/06/17 12:53:53;;;;;;;;;;;;;;;25.50;31.50;95427.72;10504880;28;1979;-68
2023/06/17 12:58:56;;;;;;;;;;;;;;;25.79;32.28;95428.84;10504102;28;1973;-68
2023/06/17 13:04:00;;;;;;;;;;;;;;;26.52;31.02;95431.75;10498068;28;1887;-69
2023/06/17 13:09:03;;;;;;;;;;;;;;;26.70;28.80;95432.66;10498573;28;1953;-67
2023/06/17 13:14:05;;;;;;;;;;;;;;;27.19;28.61;95426.59;10499637;28;2012;-67
2023/06/17 13:19:07;;;;;;;;;;;;;;;27.05;30.16;95420.22;10504052;28;1952;-68
2023/06/17 13:24:10;;;;;;;;;;;;;;;25.20;32.47;95428.63;10508087;28;1891;-69
2023/06/17 13:29:13;;;;;;;;;;;;;;;25.95;32.49;95431.31;10508548;28;1969;-68
2023/06/17 13:34:17;;;;;;;;;;;;;;;26.34;30.76;95426.13;10499764;28;2321;-67
2023/06/17 13:39:20;;;;;;;;;;;;;;;26.43;31.47;95431.31;10503969;28;1912;-68
2023/06/17 13:44:22;;;;;;;;;;;;;;;25.86;31.88;95423.38;10504750;28;4545;-65
2023/06/17 13:49:25;;;;;;;;;;;;;;;26.32;31.84;95423.72;10497252;28;1924;-67
2023/06/17 13:54:27;;;;;;;;;;;;;;;26.73;31.39;95420.09;10502805;28;1918;-66
2023/06/17 13:59:30;;;;;;;;;;;;;;;26.99;30.97;95410.75;10490559;28;2109;-68
2023/06/17 14:04:32;;;;;;;;;;;;;;;27.35;31.82;95401.41;10496895;28;1944;-65
2023/06/17 14:09:35;;;;;;;;;;;;;;;27.12;29.84;95414.75;10495845;28;1903;-66
2023/06/17 14:14:37;;;;;;;;;;;;;;;27.56;28.48;95400.69;10505884;28;1964;-66
2023/06/17 14:19:40;;;;;;;;;;;;;;;27.34;28.14;95383.28;10494442;28;2008;-66
2023/06/17 14:24:42;;;;;;;;;;;;;;;27.34;28.47;95394.31;10505720;28;1905;-67
2023/06/17 14:29:45;;;;;;;;;;;;;;;27.43;29.20;95389.22;10497771;28;2778;-67
2023/06/17 14:34:47;;;;;;;;;;;;;;;27.13;29.21;95394.25;10508242;28;1957;-69
2023/06/17 14:39:50;;;;;;;;;;;;;;;26.94;29.35;95384.31;10513510;28;2209;-67
2023/06/17 14:44:52;;;;;;;;;;;;;;;27.22;28.85;95380.88;10516553;28;4482;-68
2023/06/17 14:49:54;;;;;;;;;;;;;;;27.28;27.90;95376.56;10509648;28;2002;-67
2023/06/17 14:54:57;;;;;;;;;;;;;;;27.79;27.58;95380.19;10508263;28;1995;-67
2023/06/17 14:59:59;;;;;;;;;;;;;;;27.77;27.34;95377.84;10502137;28;1996;-68
2023/06/17 15:05:02;;;;;;;;;;;;;;;26.86;27.99;95402.03;10499314;28;2014;-67
2023/06/17 15:10:04;;;;;;;;;;;;;;;26.88;28.37;95378.38;10509461;28;1948;-67
2023/06/17 15:15:07;;;;;;;;;;;;;;;26.65;27.79;95375.13;10506957;28;1965;-67
2023/06/17 15:20:10;;;;;;;;;;;;;;;26.35;28.95;95367.88;10516865;28;1784;-68
2023/06/17 15:25:12;;;;;;;;;;;;;;;26.90;28.39;95373.25;10514595;28;2263;-68
2023/06/17 15:30:15;;;;;;;;;;;;;;;27.08;28.09;95369.81;10514735;28;1716;-68
2023/06/17 15:35:18;;;;;;;;;;;;;;;26.94;28.50;95374.06;10511205;28;1948;-68
2023/06/17 15:40:22;;;;;;;;;;;;;;;27.00;28.65;95363.44;10499857;28;1995;-68
2023/06/17 15:45:24;;;;;;;;;;;;;;;26.77;28.21;95352.72;10499970;28;4945;-68
2023/06/17 15:50:27;;;;;;;;;;;;;;;26.61;27.59;95374.34;10507319;28;1969;-68
2023/06/17 15:55:29;;;;;;;;;;;;;;;26.43;29.11;95368.72;10503027;28;1981;-68
2023/06/17 16:00:32;;;;;;;;;;;;;;;26.42;28.48;95366.38;10503340;28;1961;-67
2023/06/17 16:05:34;;;;;;;;;;;;;;;26.26;28.24;95361.09;10499313;28;1987;-67
2023/06/17 16:10:37;;;;;;;;;;;;;;;26.29;28.93;95361.16;10509632;28;1962;-68
2023/06/17 16:15:40;;;;;;;;;;;;;;;26.23;29.47;95364.66;10508165;28;2017;-67
2023/06/17 16:20:43;;;;;;;;;;;;;;;25.81;29.23;95369.47;10501417;28;2448;-68
2023/06/17 16:25:46;;;;;;;;;;;;;;;25.81;29.74;95366.69;10497982;28;1930;-68
2023/06/17 16:30:57;;;;;;;;;;;;;;;25.50;30.44;95365.22;10512786;28;2087;-68
2023/06/17 16:35:59;;;;;;;;;;;;;;;25.48;30.91;95366.78;10498172;28;2068;-68
2023/06/17 16:41:02;;;;;;;;;;;;;;;25.63;30.39;95359.44;10503318;28;4538;-67
2023/06/17 16:46:05;;;;;;;;;;;;;;;25.60;30.75;95361.00;10499950;28;1925;-68
2023/06/17 16:51:08;;;;;;;;;;;;;;;25.52;31.38;95364.88;10506052;28;2071;-68
2023/06/17 16:56:10;;;;;;;;;;;;;;;25.57;31.08;95381.00;10489730;28;2043;-67
2023/06/17 17:01:13;;;;;;;;;;;;;;;25.24;31.42;95365.38;10501856;28;2011;-68
2023/06/17 17:06:16;;;;;;;;;;;;;;;25.43;30.78;95361.63;10502157;28;1957;-67
2023/06/17 17:11:19;;;;;;;;;;;;;;;25.31;31.37;95377.22;10496338;28;1996;-67
2023/06/17 17:16:21;;;;;;;;;;;;;;;25.15;31.47;95375.91;10505448;28;2293;-68
2023/06/17 17:21:25;;;;;;;;;;;;;;;25.08;30.81;95370.31;10501111;28;1887;-68
2023/06/17 17:26:27;;;;;;;;;;;;;;;25.03;30.76;95360.41;10499413;28;1920;-67
2023/06/17 17:31:29;;;;;;;;;;;;;;;24.97;30.47;95370.16;10501336;28;1949;-67
2023/06/17 17:36:32;;;;;;;;;;;;;;;24.83;29.92;95373.56;10505788;28;1953;-67
2023/06/17 17:41:34;;;;;;;;;;;;;;;24.72;30.77;95373.41;10503930;28;4672;-66
2023/06/17 17:46:37;;;;;;;;;;;;;;;24.53;31.09;95370.81;10502733;28;1937;-66
2023/06/17 17:51:39;;;;;;;;;;;;;;;24.54;31.02;95373.19;10501485;28;2272;-68
2023/06/17 17:56:41;;;;;;;;;;;;;;;24.34;31.87;95377.25;10500043;28;1983;-68
2023/06/17 18:01:44;;;;;;;;;;;;;;;24.09;32.29;95385.09;10497146;28;1978;-66
2023/06/17 18:06:47;;;;;;;;;;;;;;;23.96;32.32;95398.22;10505769;28;1886;-67
2023/06/17 18:11:49;;;;;;;;;;;;;;;23.80;33.27;95408.56;10499823;28;1975;-68
2023/06/17 18:16:52;;;;;;;;;;;;;;;23.58;33.73;95406.59;10501452;28;2510;-68
2023/06/17 18:21:54;;;;;;;;;;;;;;;23.44;34.19;95409.88;10505285;28;1922;-69
2023/06/17 18:26:57;;;;;;;;;;;;;;;23.27;34.60;95411.13;10512877;28;1906;-67
2023/06/17 18:31:59;;;;;;;;;;;;;;;23.06;35.13;95411.53;10510040;28;1975;-68
2023/06/17 18:37:01;;;;;;;;;;;;;;;22.93;36.70;95412.84;10507471;28;2031;-67
2023/06/17 18:42:04;;;;;;;;;;;;;;;22.78;37.82;95417.22;10513104;28;4642;-68
2023/06/17 18:47:06;;;;;;;;;;;;;;;22.61;38.59;95418.44;10514315;28;1899;-68
2023/06/17 18:52:09;;;;;;;;;;;;;;;22.42;39.57;95421.13;10513647;28;1966;-69
2023/06/17 18:57:13;;;;;;;;;;;;;;;22.23;40.70;95412.88;10512014;28;1914;-68
2023/06/17 19:02:15;;;;;;;;;;;;;;;22.03;42.17;95426.50;10502103;28;2152;-69
2023/06/17 19:07:18;;;;;;;;;;;;;;;21.69;43.19;95432.69;10506903;28;1963;-68
2023/06/17 19:12:20;;;;;;;;;;;;;;;21.59;44.34;95442.22;10509417;28;2251;-67
2023/06/17 19:17:23;;;;;;;;;;;;;;;21.35;45.85;95454.09;10514983;28;1956;-68
2023/06/17 19:22:27;;;;;;;;;;;;;;;21.09;47.91;95453.72;10514327;28;2141;-68
2023/06/17 19:27:29;;;;;;;;;;;;;;;20.89;48.36;95455.53;10507631;28;1981;-69
2023/06/17 19:32:32;;;;;;;;;;;;;;;20.82;50.01;95461.56;10510235;28;1934;-68
2023/06/17 19:37:35;;;;;;;;;;;;;;;20.61;51.06;95463.66;10503220;28;2077;-67
2023/06/17 19:42:38;;;;;;;;;;;;;;;20.58;52.02;95470.63;10495158;28;4550;-69
2023/06/17 19:47:41;;;;;;;;;;;;;;;20.35;54.08;95475.75;10500077;28;2031;-68
2023/06/17 19:52:44;;;;;;;;;;;;;;;20.19;55.65;95481.13;10495531;28;1947;-68
2023/06/17 19:57:46;;;;;;;;;;;;;;;20.04;57.80;95486.44;10504078;28;1911;-68
2023/06/17 20:02:51;;;;;;;;;;;;;;;19.88;61.44;95480.88;10498777;28;2299;-68
2023/06/17 20:07:53;;;;;;;;;;;;;;;19.78;63.32;95487.56;10505158;28;1988;-68
2023/06/17 20:12:57;;;;;;;;;;;;;;;19.65;68.85;95480.50;10511261;28;1897;-68
2023/06/17 20:18:00;;;;;;;;;;;;;;;19.47;73.58;95479.06;10499531;28;1921;-69
2023/06/17 20:23:03;;;;;;;;;;;;;;;19.41;75.91;95489.41;10502075;28;1949;-69
2023/06/17 20:28:05;;;;;;;;;;;;;;;19.27;76.01;95486.16;10508187;28;1995;-68
2023/06/17 20:33:08;;;;;;;;;;;;;;;19.13;77.35;95486.47;10500692;28;2038;-68
2023/06/17 20:38:10;;;;;;;;;;;;;;;19.13;78.29;95486.47;10504811;28;1934;-68
2023/06/17 20:43:13;;;;;;;;;;;;;;;19.08;77.79;95490.19;10500599;28;2569;-68
2023/06/17 20:48:15;;;;;;;;;;;;;;;19.05;78.04;95490.06;10502100;28;2031;-67
2023/06/17 20:53:19;;;;;;;;;;;;;;;18.93;77.74;95488.09;10500549;28;1983;-68
2023/06/17 20:58:21;;;;;;;;;;;;;;;18.94;78.19;95483.44;10506171;28;1958;-69
2023/06/17 21:03:24;;;;;;;;;;;;;;;18.87;81.10;95484.75;10505588;28;2303;-68
2023/06/17 21:08:27;;;;;;;;;;;;;;;18.81;80.05;95496.19;10507789;28;1900;-68
2023/06/17 21:13:29;;;;;;;;;;;;;;;18.76;82.05;95489.00;10498354;28;2053;-69
2023/06/17 21:18:32;;;;;;;;;;;;;;;18.76;85.19;95489.00;10497440;28;1975;-65
2023/06/17 21:23:35;;;;;;;;;;;;;;;18.86;81.97;95488.63;10501145;28;1887;-66
2023/06/17 21:28:38;;;;;;;;;;;;;;;18.71;83.30;95500.13;10504106;28;1919;-67
2023/06/17 21:33:40;;;;;;;;;;;;;;;18.63;85.61;95490.03;10505665;28;1874;-68
2023/06/17 21:38:43;;;;;;;;;;;;;;;18.56;91.19;95496.03;10504166;28;1965;-68
2023/06/17 21:43:45;;;;;;;;;;;;;;;18.35;95.14;95496.00;10503339;28;4490;-68
2023/06/17 21:48:48;;;;;;;;;;;;;;;18.32;94.74;95490.41;10514156;28;1983;-67
2023/06/17 21:53:50;;;;;;;;;;;;;;;18.33;94.86;95501.00;10504691;28;1952;-68
2023/06/17 21:58:52;;;;;;;;;;;;;;;18.15;87.35;95506.84;10504316;28;2439;-68
2023/06/17 22:03:55;;;;;;;;;;;;;;;18.08;95.48;95507.38;10506681;28;1975;-69
2023/06/17 22:08:58;;;;;;;;;;;;;;;17.99;97.30;95503.88;10507857;28;1883;-68
2023/06/17 22:14:00;;;;;;;;;;;;;;;18.05;99.37;95497.13;10514939;28;2035;-68
2023/06/17 22:19:03;;;;;;;;;;;;;;;18.15;99.91;95507.66;10506350;28;1938;-68
2023/06/17 22:24:06;;;;;;;;;;;;;;;18.13;100.00;95504.44;10512305;28;1999;-69
2023/06/17 22:29:08;;;;;;;;;;;;;;;18.05;100.00;95508.00;10507953;28;2015;-68
2023/06/17 22:34:11;;;;;;;;;;;;;;;18.03;100.00;95518.44;10503591;28;1955;-67
2023/06/17 22:39:14;;;;;;;;;;;;;;;18.16;100.00;95503.00;10512704;28;2194;-69
2023/06/17 22:44:16;;;;;;;;;;;;;;;18.07;100.00;95511.22;10506646;28;4628;-68
2023/06/17 22:49:19;;;;;;;;;;;;;;;17.92;100.00;95509.81;10508858;28;1962;-68
2023/06/17 22:54:21;;;;;;;;;;;;;;;17.86;100.00;95504.91;10508126;28;1982;-68
2023/06/17 22:59:24;;;;;;;;;;;;;;;17.70;100.00;95513.56;10510226;28;3717;-67
2023/06/17 23:04:26;;;;;;;;;;;;;;;17.63;100.00;95513.28;10504540;28;1945;-68
2023/06/17 23:09:29;;;;;;;;;;;;;;;17.59;100.00;95511.53;10507851;28;1911;-68
2023/06/17 23:14:31;;;;;;;;;;;;;;;17.51;100.00;95510.44;10504603;28;2010;-68
2023/06/17 23:19:34;;;;;;;;;;;;;;;17.48;100.00;95511.06;10504117;28;2351;-68
2023/06/17 23:24:36;;;;;;;;;;;;;;;17.33;100.00;95519.75;10507166;28;1927;-66
2023/06/17 23:29:39;;;;;;;;;;;;;;;17.34;100.00;95505.03;10505920;28;2075;-68
2023/06/17 23:34:43;;;;;;;;;;;;;;;17.28;100.00;95513.34;10506215;28;1888;-67
2023/06/17 23:39:46;;;;;;;;;;;;;;;17.28;100.00;95507.91;10497050;28;1996;-67
2023/06/17 23:44:48;;;;;;;;;;;;;;;17.17;100.00;95505.84;10502315;28;4479;-68
2023/06/17 23:49:52;;;;;;;;;;;;;;;17.10;100.00;95502.81;10508643;28;1977;-68
2023/06/17 23:54:55;;;;;;;;;;;;;;;17.11;100.00;95499.78;10507227;28;1918;-68
2023/06/17 23:59:58;;;;;;;;;;;;;;;17.12;100.00;95498.69;10514748;28;1906;-68
